Terminal Aerodrome Forecast
Issued by NWS Riverton, WY

Home | Current Version | Previous Version | Text Only | Print | Product List | Glossary On
Versions: 1 2 3 4 5 6 7 8 9 10 11 12 13 14
000
FTUS45 KRIW 292300
TAFRIW
TAF
KRIW 292336Z 3000/3024 31015G23KT P6SM SCT200
     FM301000 27009KT P6SM SKC
     FM301500 VRB05KT P6SM SKC
     FM302200 29011KT P6SM SKC=

USA.gov is the U.S. government's official web portal to all federal, state and local government web resources and services.